createdAt,value
2023-05-15T00:00:37.577Z,95140.00
2023-05-15T00:04:40.609Z,95144.00
2023-05-15T00:08:45.229Z,95151.00
2023-05-15T00:12:48.127Z,95147.00
2023-05-15T00:16:51.195Z,95139.00
2023-05-15T00:20:54.010Z,95137.00
2023-05-15T00:24:59.514Z,95134.00
2023-05-15T00:29:02.363Z,95129.00
2023-05-15T00:33:05.398Z,95120.00
2023-05-15T00:37:08.528Z,95126.00
2023-05-15T00:41:12.917Z,95115.00
2023-05-15T00:45:16.500Z,95116.00
2023-05-15T00:49:20.440Z,95117.00
2023-05-15T00:53:23.398Z,95113.00
2023-05-15T00:57:28.703Z,95110.00
2023-05-15T01:01:34.503Z,95109.00
2023-05-15T01:05:38.660Z,95109.00
2023-05-15T01:09:44.711Z,95101.00
2023-05-15T01:13:48.829Z,95100.00
2023-05-15T01:17:52.607Z,95108.00
2023-05-15T01:22:31.018Z,95106.00
2023-05-15T01:27:03.157Z,95102.00
2023-05-15T01:31:15.645Z,95099.00
2023-05-15T01:35:24.393Z,95097.00
2023-05-15T01:39:29.604Z,95094.00
2023-05-15T01:43:34.718Z,95096.00
2023-05-15T01:47:42.337Z,95099.00
2023-05-15T01:51:45.632Z,95098.00
2023-05-15T01:55:50.591Z,95100.00
2023-05-15T01:59:55.089Z,95087.00
2023-05-15T02:04:01.259Z,95092.00
2023-05-15T02:08:05.459Z,95098.00
2023-05-15T02:12:08.849Z,95097.00
2023-05-15T02:16:11.780Z,95096.00
2023-05-15T02:20:16.090Z,95100.00
2023-05-15T02:24:19.191Z,95099.00
2023-05-15T02:28:39.890Z,95098.00
2023-05-15T02:32:48.297Z,95088.00
2023-05-15T02:36:54.138Z,95085.00
2023-05-15T02:40:58.937Z,95089.00
2023-05-15T02:45:03.823Z,95072.00
2023-05-15T02:49:06.795Z,95077.00
2023-05-15T02:53:14.327Z,95086.00
2023-05-15T02:57:17.197Z,95082.00
2023-05-15T03:01:20.011Z,95079.00
2023-05-15T03:05:23.294Z,95076.00
2023-05-15T03:09:28.134Z,95087.00
2023-05-15T03:13:30.952Z,95086.00
2023-05-15T03:17:33.989Z,95080.00
2023-05-15T03:21:36.827Z,95079.00
2023-05-15T03:25:41.074Z,95070.00
2023-05-15T03:29:44.104Z,95072.00
2023-05-15T03:33:50.662Z,95068.00
2023-05-15T03:37:53.507Z,95082.00
2023-05-15T03:41:57.639Z,95079.00
2023-05-15T03:46:00.516Z,95070.00
2023-05-15T03:50:03.530Z,95058.00
2023-05-15T03:54:09.506Z,95078.00
2023-05-15T03:58:13.678Z,95076.00
2023-05-15T04:02:16.526Z,95078.00
2023-05-15T04:06:19.294Z,95076.00
2023-05-15T04:10:22.172Z,95067.00
2023-05-15T04:14:26.380Z,95067.00
2023-05-15T04:18:29.230Z,95062.00
2023-05-15T04:22:32.243Z,95062.00
2023-05-15T04:26:35.282Z,95077.00
2023-05-15T04:30:39.434Z,95068.00
2023-05-15T04:34:42.485Z,95076.00
2023-05-15T04:38:45.335Z,95077.00
2023-05-15T04:42:48.116Z,95078.00
2023-05-15T04:46:52.270Z,95073.00
2023-05-15T04:50:55.107Z,95085.00
2023-05-15T04:54:57.919Z,95092.00
2023-05-15T04:59:01.012Z,95089.00
2023-05-15T05:03:05.433Z,95087.00
2023-05-15T05:07:08.303Z,95096.00
2023-05-15T05:11:11.149Z,95097.00
2023-05-15T05:15:14.098Z,95100.00
2023-05-15T05:19:18.329Z,95104.00
2023-05-15T05:23:21.164Z,95104.00
2023-05-15T05:27:23.951Z,95101.00
2023-05-15T05:31:26.762Z,95112.00
2023-05-15T05:35:31.162Z,95113.00
2023-05-15T05:39:33.972Z,95108.00
2023-05-15T05:43:36.857Z,95114.00
2023-05-15T05:47:39.756Z,95128.00
2023-05-15T05:51:43.989Z,95120.00
2023-05-15T05:55:47.139Z,95129.00
2023-05-15T05:59:49.945Z,95133.00
2023-05-15T06:03:52.852Z,95134.00
2023-05-15T06:07:57.877Z,95131.00
2023-05-15T06:12:04.490Z,95142.00
2023-05-15T06:16:07.751Z,95130.00
2023-05-15T06:20:12.065Z,95141.00
2023-05-15T06:24:16.261Z,95138.00
2023-05-15T06:28:19.075Z,95136.00
2023-05-15T06:32:21.924Z,95134.00
2023-05-15T06:36:24.804Z,95136.00
2023-05-15T06:40:29.015Z,95143.00
2023-05-15T06:44:32.071Z,95137.00
2023-05-15T06:48:34.943Z,95145.00
2023-05-15T06:52:37.744Z,95150.00
2023-05-15T06:56:41.933Z,95145.00
2023-05-15T07:00:44.777Z,95149.00
2023-05-15T07:04:47.602Z,95160.00
2023-05-15T07:08:50.547Z,95154.00
2023-05-15T07:12:54.730Z,95157.00
2023-05-15T07:16:57.561Z,95156.00
2023-05-15T07:21:00.448Z,95156.00
2023-05-15T07:25:04.153Z,95153.00
2023-05-15T07:29:08.661Z,95152.00
2023-05-15T07:33:12.363Z,95151.00
2023-05-15T07:37:16.864Z,95147.00
2023-05-15T07:41:19.935Z,95150.00
2023-05-15T07:45:24.426Z,95146.00
2023-05-15T07:49:27.459Z,95143.00
2023-05-15T07:53:30.247Z,95149.00
2023-05-15T07:57:33.067Z,95151.00
2023-05-15T08:01:37.630Z,95145.00
2023-05-15T08:05:40.483Z,95146.00
2023-05-15T08:09:43.445Z,95142.00
2023-05-15T08:13:46.254Z,95144.00
2023-05-15T08:17:50.514Z,95142.00
2023-05-15T08:21:53.307Z,95142.00
2023-05-15T08:25:56.126Z,95141.00
2023-05-15T08:29:58.889Z,95140.00
2023-05-15T08:34:03.049Z,95148.00
2023-05-15T08:38:06.160Z,95148.00
2023-05-15T08:42:20.956Z,95156.00
2023-05-15T08:46:24.798Z,95151.00
2023-05-15T08:50:30.362Z,95157.00
2023-05-15T08:54:33.453Z,95148.00
2023-05-15T08:58:36.338Z,95142.00
2023-05-15T09:02:39.810Z,95144.00
2023-05-15T09:06:45.663Z,95150.00
2023-05-15T09:10:49.493Z,95154.00
2023-05-15T09:14:52.236Z,95144.00
2023-05-15T09:18:55.377Z,95141.00
2023-05-15T09:23:00.507Z,95131.00
2023-05-15T09:27:05.137Z,95123.00
2023-05-15T09:31:09.078Z,95120.00
2023-05-15T09:35:30.167Z,95122.00
2023-05-15T09:39:34.759Z,95123.00
2023-05-15T09:43:39.245Z,95123.00
2023-05-15T09:47:42.079Z,95122.00
2023-05-15T09:51:45.354Z,95123.00
2023-05-15T09:55:50.052Z,95122.00
2023-05-15T09:59:52.850Z,95123.00
2023-05-15T10:03:59.941Z,95124.00
2023-05-15T10:08:03.256Z,95128.00
2023-05-15T10:12:09.341Z,95111.00
2023-05-15T10:16:13.984Z,95107.00
2023-05-15T10:20:18.101Z,95100.00
2023-05-15T10:24:22.292Z,95104.00
2023-05-15T10:28:28.098Z,95092.00
2023-05-15T10:32:31.164Z,95081.00
2023-05-15T10:36:35.121Z,95075.00
2023-05-15T10:40:39.206Z,95067.00
2023-05-15T10:44:43.407Z,95070.00
2023-05-15T10:48:46.365Z,95066.00
2023-05-15T10:52:51.922Z,95065.00
2023-05-15T10:56:57.213Z,95061.00
2023-05-15T11:01:02.112Z,95060.00
2023-05-15T11:05:05.783Z,95061.00
2023-05-15T11:09:39.460Z,95055.00
2023-05-15T11:14:20.652Z,95054.00
2023-05-15T11:18:24.812Z,95055.00
2023-05-15T11:22:32.585Z,95049.00
2023-05-15T11:26:35.455Z,95060.00
2023-05-15T11:30:40.011Z,95048.00
2023-05-15T11:34:44.558Z,95041.00
2023-05-15T11:38:51.782Z,95047.00
2023-05-15T11:43:18.097Z,95037.00
2023-05-15T11:47:22.004Z,95037.00
2023-05-15T11:51:27.615Z,95033.00
2023-05-15T11:55:31.857Z,95040.00
2023-05-15T11:59:35.224Z,95040.00
2023-05-15T12:03:38.331Z,95071.00
2023-05-15T12:07:44.480Z,95080.00
2023-05-15T12:11:51.726Z,95082.00
2023-05-15T12:15:56.257Z,95095.00
2023-05-15T12:19:59.416Z,95104.00
2023-05-15T12:24:08.125Z,95108.00
2023-05-15T12:28:12.760Z,95097.00
2023-05-15T12:32:15.868Z,95103.00
2023-05-15T12:36:21.327Z,95097.00
2023-05-15T12:40:25.625Z,95109.00
2023-05-15T12:44:29.321Z,95112.00
2023-05-15T12:48:33.069Z,95106.00
2023-05-15T12:52:35.892Z,95115.00
2023-05-15T12:56:41.339Z,95107.00
2023-05-15T13:00:46.019Z,95103.00
2023-05-15T13:04:48.921Z,95095.00
2023-05-15T13:08:51.692Z,95095.00
2023-05-15T13:12:57.821Z,95100.00
2023-05-15T13:17:02.726Z,95108.00
2023-05-15T13:21:05.922Z,95114.00
2023-05-15T13:25:10.099Z,95121.00
2023-05-15T13:29:14.247Z,95108.00
2023-05-15T13:33:17.043Z,95106.00
2023-05-15T13:37:19.788Z,95099.00
2023-05-15T13:41:22.563Z,95105.00
2023-05-15T13:45:26.682Z,95115.00
2023-05-15T13:49:29.576Z,95111.00
2023-05-15T13:53:32.316Z,95113.00
2023-05-15T13:57:35.165Z,95121.00
2023-05-15T14:01:39.281Z,95124.00
2023-05-15T14:05:42.053Z,95132.00
2023-05-15T14:09:44.884Z,95149.00
2023-05-15T14:13:47.716Z,95168.00
2023-05-15T14:17:51.911Z,95183.00
2023-05-15T14:21:54.785Z,95179.00
2023-05-15T14:25:57.534Z,95189.00
2023-05-15T14:30:00.344Z,95192.00
2023-05-15T14:34:05.492Z,95183.00
2023-05-15T14:38:08.465Z,95186.00
2023-05-15T14:42:11.985Z,95183.00
2023-05-15T14:46:14.965Z,95178.00
2023-05-15T14:50:19.327Z,95189.00
2023-05-15T14:54:22.169Z,95191.00
2023-05-15T14:58:25.061Z,95180.00
2023-05-15T15:02:27.921Z,95180.00
2023-05-15T15:06:32.150Z,95193.00
2023-05-15T15:10:36.711Z,95196.00
2023-05-15T15:14:39.502Z,95191.00
2023-05-15T15:18:42.647Z,95186.00
2023-05-15T15:22:47.132Z,95184.00
2023-05-15T15:26:49.933Z,95180.00
2023-05-15T15:30:52.760Z,95185.00
2023-05-15T15:34:57.158Z,95172.00
2023-05-15T15:39:01.317Z,95172.00
2023-05-15T15:43:04.117Z,95169.00
2023-05-15T15:47:06.991Z,95157.00
2023-05-15T15:51:09.953Z,95155.00
2023-05-15T15:55:14.085Z,95147.00
2023-05-15T15:59:16.892Z,95143.00
2023-05-15T16:03:19.814Z,95132.00
2023-05-15T16:07:22.697Z,95147.00
2023-05-15T16:11:27.060Z,95132.00
2023-05-15T16:15:29.852Z,95140.00
2023-05-15T16:19:32.717Z,95141.00
2023-05-15T16:23:35.983Z,95133.00
2023-05-15T16:27:40.154Z,95141.00
2023-05-15T16:31:43.123Z,95157.00
2023-05-15T16:35:45.938Z,95145.00
2023-05-15T16:39:49.055Z,95156.00
2023-05-15T16:43:53.138Z,95162.00
2023-05-15T16:47:56.324Z,95165.00
2023-05-15T16:51:59.131Z,95168.00
2023-05-15T16:56:01.968Z,95167.00
2023-05-15T17:00:08.800Z,95175.00
2023-05-15T17:04:11.782Z,95179.00
2023-05-15T17:08:14.785Z,95182.00
2023-05-15T17:12:17.595Z,95183.00
2023-05-15T17:16:21.974Z,95179.00
2023-05-15T17:20:24.893Z,95191.00
2023-05-15T17:24:38.548Z,95189.00
2023-05-15T17:28:50.574Z,95184.00
2023-05-15T17:32:54.818Z,95192.00
2023-05-15T17:36:57.680Z,95197.00
2023-05-15T17:41:00.403Z,95193.00
2023-05-15T17:45:03.304Z,95191.00
2023-05-15T17:49:07.504Z,95196.00
2023-05-15T17:53:10.328Z,95198.00
2023-05-15T17:57:13.145Z,95213.00
2023-05-15T18:01:16.007Z,95211.00
2023-05-15T18:05:21.550Z,95205.00
2023-05-15T18:09:24.847Z,95223.00
2023-05-15T18:13:27.727Z,95222.00
2023-05-15T18:17:30.562Z,95225.00
2023-05-15T18:21:37.010Z,95225.00
2023-05-15T18:25:40.700Z,95222.00
2023-05-15T18:29:45.563Z,95220.00
2023-05-15T18:33:48.505Z,95213.00
2023-05-15T18:37:52.717Z,95214.00
2023-05-15T18:41:55.583Z,95223.00
2023-05-15T18:45:58.390Z,95223.00
2023-05-15T18:50:01.148Z,95229.00
2023-05-15T18:54:05.369Z,95224.00
2023-05-15T18:58:08.732Z,95232.00
2023-05-15T19:02:11.589Z,95230.00
2023-05-15T19:06:19.777Z,95235.00
2023-05-15T19:10:24.524Z,95235.00
2023-05-15T19:14:27.430Z,95232.00
2023-05-15T19:18:30.231Z,95235.00
2023-05-15T19:22:33.204Z,95238.00
2023-05-15T19:26:37.380Z,95240.00
2023-05-15T19:30:40.167Z,95236.00
2023-05-15T19:34:42.968Z,95237.00
2023-05-15T19:38:45.951Z,95241.00
2023-05-15T19:42:50.051Z,95244.00
2023-05-15T19:46:54.471Z,95255.00
2023-05-15T19:50:57.482Z,95254.00
2023-05-15T19:55:00.288Z,95249.00
2023-05-15T19:59:04.434Z,95247.00
2023-05-15T20:03:07.418Z,95246.00
2023-05-15T20:07:10.314Z,95248.00
2023-05-15T20:11:13.136Z,95243.00
2023-05-15T20:15:18.128Z,95252.00
2023-05-15T20:19:24.286Z,95246.00
2023-05-15T20:23:27.249Z,95240.00
2023-05-15T20:27:30.065Z,95231.00
2023-05-15T20:31:34.559Z,95240.00
2023-05-15T20:35:38.744Z,95240.00
2023-05-15T20:39:41.587Z,95250.00
2023-05-15T20:43:44.400Z,95250.00
2023-05-15T20:47:48.629Z,95251.00
2023-05-15T20:51:51.480Z,95238.00
2023-05-15T20:55:54.268Z,95244.00
2023-05-15T20:59:57.044Z,95247.00
2023-05-15T21:04:01.303Z,95239.00
2023-05-15T21:08:04.486Z,95245.00
2023-05-15T21:12:08.215Z,95237.00
2023-05-15T21:16:10.986Z,95243.00
2023-05-15T21:20:15.238Z,95244.00
2023-05-15T21:24:18.114Z,95239.00
2023-05-15T21:28:21.060Z,95236.00
2023-05-15T21:32:24.154Z,95245.00
2023-05-15T21:36:28.402Z,95238.00
2023-05-15T21:40:31.236Z,95245.00
2023-05-15T21:44:34.377Z,95237.00
2023-05-15T21:48:37.136Z,95233.00
2023-05-15T21:52:41.259Z,95247.00
2023-05-15T21:56:43.992Z,95252.00
2023-05-15T22:00:46.770Z,95248.00
2023-05-15T22:04:49.567Z,95248.00
2023-05-15T22:08:53.716Z,95250.00
2023-05-15T22:13:02.598Z,95255.00
2023-05-15T22:17:05.876Z,95261.00
2023-05-15T22:21:08.620Z,95259.00
2023-05-15T22:25:12.987Z,95264.00
2023-05-15T22:29:15.832Z,95267.00
2023-05-15T22:33:18.645Z,95266.00
2023-05-15T22:37:21.775Z,95264.00
2023-05-15T22:41:25.953Z,95261.00
2023-05-15T22:45:28.662Z,95271.00
2023-05-15T22:49:31.384Z,95266.00
2023-05-15T22:53:34.622Z,95259.00
2023-05-15T22:57:38.729Z,95261.00
2023-05-15T23:01:41.615Z,95260.00
2023-05-15T23:05:45.187Z,95252.00
2023-05-15T23:09:47.933Z,95256.00
2023-05-15T23:13:52.063Z,95252.00
2023-05-15T23:17:54.826Z,95250.00
2023-05-15T23:21:57.649Z,95251.00
2023-05-15T23:26:00.408Z,95249.00
2023-05-15T23:30:04.988Z,95241.00
2023-05-15T23:34:08.220Z,95245.00
2023-05-15T23:38:10.995Z,95240.00
2023-05-15T23:42:13.724Z,95234.00
2023-05-15T23:46:18.367Z,95230.00
2023-05-15T23:50:21.659Z,95225.00
2023-05-15T23:54:24.421Z,95220.00
2023-05-15T23:58:27.138Z,95224.00
